sensor_id;sensor_type;location;lat;lon;timestamp;pressure;altitude;pressure_sealevel;temperature;humidity
35489;BME280;21602;55.670;37.578;2022-12-08T00:00:25;99681.59;;;-7.55;77.97
35489;BME280;21602;55.670;37.578;2022-12-08T00:02:51;99667.72;;;-7.66;78.13
35489;BME280;21602;55.670;37.578;2022-12-08T00:05:16;99669.81;;;-7.71;78.31
35489;BME280;21602;55.670;37.578;2022-12-08T00:08:00;99677.41;;;-7.68;78.20
35489;BME280;21602;55.670;37.578;2022-12-08T00:10:45;99671.03;;;-7.64;78.23
35489;BME280;21602;55.670;37.578;2022-12-08T00:13:11;99667.19;;;-7.59;78.11
35489;BME280;21602;55.670;37.578;2022-12-08T00:15:36;99670.88;;;-7.50;78.18
35489;BME280;21602;55.670;37.578;2022-12-08T00:18:02;99675.63;;;-7.44;77.92
35489;BME280;21602;55.670;37.578;2022-12-08T00:20:27;99664.81;;;-7.38;77.85
35489;BME280;21602;55.670;37.578;2022-12-08T00:22:53;99664.34;;;-7.32;77.62
35489;BME280;21602;55.670;37.578;2022-12-08T00:25:19;99654.78;;;-7.31;77.60
35489;BME280;21602;55.670;37.578;2022-12-08T00:27:44;99649.94;;;-7.36;77.49
35489;BME280;21602;55.670;37.578;2022-12-08T00:30:10;99660.84;;;-7.31;77.49
35489;BME280;21602;55.670;37.578;2022-12-08T00:32:36;99654.91;;;-7.33;77.30
35489;BME280;21602;55.670;37.578;2022-12-08T00:35:02;99644.50;;;-7.44;77.26
35489;BME280;21602;55.670;37.578;2022-12-08T00:37:28;99647.81;;;-7.42;77.38
35489;BME280;21602;55.670;37.578;2022-12-08T00:39:53;99640.16;;;-7.43;77.32
35489;BME280;21602;55.670;37.578;2022-12-08T00:42:19;99648.03;;;-7.45;77.43
35489;BME280;21602;55.670;37.578;2022-12-08T00:44:45;99635.16;;;-7.47;77.65
35489;BME280;21602;55.670;37.578;2022-12-08T00:47:11;99646.53;;;-7.36;77.55
35489;BME280;21602;55.670;37.578;2022-12-08T00:49:37;99638.41;;;-7.32;77.28
35489;BME280;21602;55.670;37.578;2022-12-08T00:52:03;99642.88;;;-7.34;77.21
35489;BME280;21602;55.670;37.578;2022-12-08T00:54:29;99639.94;;;-7.40;77.13
35489;BME280;21602;55.670;37.578;2022-12-08T00:56:54;99636.81;;;-7.45;77.33
35489;BME280;21602;55.670;37.578;2022-12-08T00:59:20;99639.53;;;-7.47;77.16
35489;BME280;21602;55.670;37.578;2022-12-08T01:01:46;99636.94;;;-7.47;77.32
35489;BME280;21602;55.670;37.578;2022-12-08T01:04:13;99641.84;;;-7.55;77.41
35489;BME280;21602;55.670;37.578;2022-12-08T01:06:42;99639.16;;;-7.54;77.40
35489;BME280;21602;55.670;37.578;2022-12-08T01:09:08;99633.38;;;-7.57;77.12
35489;BME280;21602;55.670;37.578;2022-12-08T01:11:35;99638.75;;;-7.60;77.33
35489;BME280;21602;55.670;37.578;2022-12-08T01:14:01;99646.13;;;-7.54;77.27
35489;BME280;21602;55.670;37.578;2022-12-08T01:16:28;99644.94;;;-7.50;77.20
35489;BME280;21602;55.670;37.578;2022-12-08T01:18:54;99643.41;;;-7.53;77.16
35489;BME280;21602;55.670;37.578;2022-12-08T01:21:19;99643.75;;;-7.57;77.17
35489;BME280;21602;55.670;37.578;2022-12-08T01:23:46;99644.88;;;-7.61;77.25
35489;BME280;21602;55.670;37.578;2022-12-08T01:26:12;99642.31;;;-7.61;77.55
35489;BME280;21602;55.670;37.578;2022-12-08T01:28:39;99627.81;;;-7.64;77.36
35489;BME280;21602;55.670;37.578;2022-12-08T01:31:08;99639.22;;;-7.66;77.66
35489;BME280;21602;55.670;37.578;2022-12-08T01:33:35;99630.00;;;-7.70;77.80
35489;BME280;21602;55.670;37.578;2022-12-08T01:36:03;99631.66;;;-7.69;77.88
35489;BME280;21602;55.670;37.578;2022-12-08T01:38:29;99630.56;;;-7.78;78.08
35489;BME280;21602;55.670;37.578;2022-12-08T01:40:55;99634.47;;;-7.72;78.22
35489;BME280;21602;55.670;37.578;2022-12-08T01:43:21;99627.91;;;-7.65;78.27
35489;BME280;21602;55.670;37.578;2022-12-08T01:45:46;99635.25;;;-7.59;78.11
35489;BME280;21602;55.670;37.578;2022-12-08T01:48:23;99634.19;;;-7.57;78.42
35489;BME280;21602;55.670;37.578;2022-12-08T01:50:50;99631.47;;;-7.55;78.11
35489;BME280;21602;55.670;37.578;2022-12-08T01:53:21;99633.38;;;-7.57;78.14
35489;BME280;21602;55.670;37.578;2022-12-08T01:55:49;99637.41;;;-7.53;77.83
35489;BME280;21602;55.670;37.578;2022-12-08T01:58:35;99641.44;;;-7.49;77.71
35489;BME280;21602;55.670;37.578;2022-12-08T02:01:02;99628.22;;;-7.46;77.90
35489;BME280;21602;55.670;37.578;2022-12-08T02:03:47;99632.25;;;-7.42;77.93
35489;BME280;21602;55.670;37.578;2022-12-08T02:06:16;99632.72;;;-7.37;77.92
35489;BME280;21602;55.670;37.578;2022-12-08T02:08:43;99631.41;;;-7.42;77.73
35489;BME280;21602;55.670;37.578;2022-12-08T02:11:10;99635.28;;;-7.48;77.74
35489;BME280;21602;55.670;37.578;2022-12-08T02:13:36;99628.22;;;-7.46;77.94
35489;BME280;21602;55.670;37.578;2022-12-08T02:16:09;99618.34;;;-7.41;77.94
35489;BME280;21602;55.670;37.578;2022-12-08T02:21:07;99620.34;;;-7.44;77.90
35489;BME280;21602;55.670;37.578;2022-12-08T02:26:15;99621.41;;;-7.36;77.87
35489;BME280;21602;55.670;37.578;2022-12-08T02:29:01;99615.53;;;-7.27;77.64
35489;BME280;21602;55.670;37.578;2022-12-08T02:34:30;99610.75;;;-7.20;77.18
35489;BME280;21602;55.670;37.578;2022-12-08T02:37:07;99608.03;;;-7.18;77.03
35489;BME280;21602;55.670;37.578;2022-12-08T02:42:20;99606.31;;;-7.42;76.98
35489;BME280;21602;55.670;37.578;2022-12-08T02:44:54;99595.19;;;-7.55;77.41
35489;BME280;21602;55.670;37.578;2022-12-08T02:47:22;99595.09;;;-7.54;77.53
35489;BME280;21602;55.670;37.578;2022-12-08T02:49:49;99596.25;;;-7.58;77.25
35489;BME280;21602;55.670;37.578;2022-12-08T02:54:49;99591.34;;;-7.74;77.75
35489;BME280;21602;55.670;37.578;2022-12-08T02:57:29;99598.41;;;-7.76;77.74
35489;BME280;21602;55.670;37.578;2022-12-08T03:04:53;99583.06;;;-7.79;77.77
35489;BME280;21602;55.670;37.578;2022-12-08T03:09:59;99580.25;;;-7.76;78.02
35489;BME280;21602;55.670;37.578;2022-12-08T03:12:30;99583.34;;;-7.70;78.05
35489;BME280;21602;55.670;37.578;2022-12-08T03:15:01;99589.97;;;-7.66;77.82
35489;BME280;21602;55.670;37.578;2022-12-08T03:17:28;99581.72;;;-7.60;77.82
35489;BME280;21602;55.670;37.578;2022-12-08T03:19:54;99580.09;;;-7.61;77.70
35489;BME280;21602;55.670;37.578;2022-12-08T03:22:22;99571.47;;;-7.62;77.65
35489;BME280;21602;55.670;37.578;2022-12-08T03:24:50;99565.69;;;-7.65;77.60
35489;BME280;21602;55.670;37.578;2022-12-08T03:27:16;99564.75;;;-7.64;77.56
35489;BME280;21602;55.670;37.578;2022-12-08T03:29:44;99571.47;;;-7.62;77.57
35489;BME280;21602;55.670;37.578;2022-12-08T03:32:15;99569.59;;;-7.60;77.59
35489;BME280;21602;55.670;37.578;2022-12-08T03:34:43;99565.00;;;-7.56;77.57
35489;BME280;21602;55.670;37.578;2022-12-08T03:37:11;99571.75;;;-7.54;77.72
35489;BME280;21602;55.670;37.578;2022-12-08T03:39:36;99567.59;;;-7.56;77.47
35489;BME280;21602;55.670;37.578;2022-12-08T03:42:02;99567.13;;;-7.61;77.90
35489;BME280;21602;55.670;37.578;2022-12-08T03:44:28;99568.06;;;-7.62;77.64
35489;BME280;21602;55.670;37.578;2022-12-08T03:46:53;99560.28;;;-7.62;78.05
35489;BME280;21602;55.670;37.578;2022-12-08T03:49:19;99561.09;;;-7.62;78.18
35489;BME280;21602;55.670;37.578;2022-12-08T03:51:45;99555.22;;;-7.64;77.99
35489;BME280;21602;55.670;37.578;2022-12-08T03:54:10;99561.22;;;-7.63;78.40
35489;BME280;21602;55.670;37.578;2022-12-08T03:56:37;99553.66;;;-7.66;78.51
35489;BME280;21602;55.670;37.578;2022-12-08T03:59:03;99549.09;;;-7.63;78.54
35489;BME280;21602;55.670;37.578;2022-12-08T04:01:29;99559.22;;;-7.60;78.72
35489;BME280;21602;55.670;37.578;2022-12-08T04:03:55;99553.69;;;-7.55;78.54
35489;BME280;21602;55.670;37.578;2022-12-08T04:06:21;99553.69;;;-7.55;78.37
35489;BME280;21602;55.670;37.578;2022-12-08T04:08:47;99548.41;;;-7.54;78.77
35489;BME280;21602;55.670;37.578;2022-12-08T04:11:13;99542.41;;;-7.54;78.32
35489;BME280;21602;55.670;37.578;2022-12-08T04:13:39;99552.28;;;-7.59;78.55
35489;BME280;21602;55.670;37.578;2022-12-08T04:16:05;99545.44;;;-7.60;78.75
35489;BME280;21602;55.670;37.578;2022-12-08T04:18:32;99536.41;;;-7.55;79.12
35489;BME280;21602;55.670;37.578;2022-12-08T04:20:57;99539.56;;;-7.51;78.89
35489;BME280;21602;55.670;37.578;2022-12-08T04:23:23;99533.94;;;-7.45;78.85
35489;BME280;21602;55.670;37.578;2022-12-08T04:25:52;99538.78;;;-7.40;78.92
35489;BME280;21602;55.670;37.578;2022-12-08T04:28:17;99544.31;;;-7.45;78.78
35489;BME280;21602;55.670;37.578;2022-12-08T04:30:43;99543.72;;;-7.49;78.85
35489;BME280;21602;55.670;37.578;2022-12-08T04:33:09;99545.47;;;-7.49;79.03
35489;BME280;21602;55.670;37.578;2022-12-08T04:35:35;99551.50;;;-7.49;79.24
35489;BME280;21602;55.670;37.578;2022-12-08T04:38:00;99544.53;;;-7.48;79.33
35489;BME280;21602;55.670;37.578;2022-12-08T04:40:26;99546.84;;;-7.56;79.42
35489;BME280;21602;55.670;37.578;2022-12-08T04:42:54;99542.00;;;-7.72;79.83
35489;BME280;21602;55.670;37.578;2022-12-08T04:45:20;99547.72;;;-7.80;80.62
35489;BME280;21602;55.670;37.578;2022-12-08T04:47:45;99547.50;;;-7.77;80.45
35489;BME280;21602;55.670;37.578;2022-12-08T04:50:11;99556.22;;;-7.78;81.14
35489;BME280;21602;55.670;37.578;2022-12-08T04:52:37;99556.44;;;-7.81;80.89
35489;BME280;21602;55.670;37.578;2022-12-08T04:55:03;99549.88;;;-7.74;80.89
35489;BME280;21602;55.670;37.578;2022-12-08T04:57:29;99549.56;;;-7.69;81.32
35489;BME280;21602;55.670;37.578;2022-12-08T04:59:56;99540.38;;;-7.62;81.10
35489;BME280;21602;55.670;37.578;2022-12-08T05:02:21;99543.22;;;-7.54;80.95
35489;BME280;21602;55.670;37.578;2022-12-08T05:04:47;99537.22;;;-7.54;80.64
35489;BME280;21602;55.670;37.578;2022-12-08T05:07:14;99541.59;;;-7.55;80.57
35489;BME280;21602;55.670;37.578;2022-12-08T05:09:39;99544.06;;;-7.53;80.63
35489;BME280;21602;55.670;37.578;2022-12-08T05:12:05;99540.16;;;-7.48;80.76
35489;BME280;21602;55.670;37.578;2022-12-08T05:14:30;99534.78;;;-7.44;80.62
35489;BME280;21602;55.670;37.578;2022-12-08T05:16:56;99544.47;;;-7.35;80.56
35489;BME280;21602;55.670;37.578;2022-12-08T05:19:22;99534.22;;;-7.26;80.30
35489;BME280;21602;55.670;37.578;2022-12-08T05:21:48;99535.47;;;-7.31;80.24
35489;BME280;21602;55.670;37.578;2022-12-08T05:24:13;99528.28;;;-7.39;80.33
35489;BME280;21602;55.670;37.578;2022-12-08T05:26:39;99528.50;;;-7.42;80.34
35489;BME280;21602;55.670;37.578;2022-12-08T05:29:05;99528.75;;;-7.45;80.28
35489;BME280;21602;55.670;37.578;2022-12-08T05:31:31;99529.19;;;-7.51;80.44
35489;BME280;21602;55.670;37.578;2022-12-08T05:33:56;99529.66;;;-7.57;80.01
35489;BME280;21602;55.670;37.578;2022-12-08T05:36:22;99522.81;;;-7.58;80.14
35489;BME280;21602;55.670;37.578;2022-12-08T05:38:48;99521.41;;;-7.62;80.21
35489;BME280;21602;55.670;37.578;2022-12-08T05:41:14;99524.13;;;-7.64;80.12
35489;BME280;21602;55.670;37.578;2022-12-08T05:43:40;99526.59;;;-7.62;80.18
35489;BME280;21602;55.670;37.578;2022-12-08T05:46:07;99522.00;;;-7.59;80.38
35489;BME280;21602;55.670;37.578;2022-12-08T05:48:33;99523.78;;;-7.59;80.57
35489;BME280;21602;55.670;37.578;2022-12-08T05:51:00;99528.84;;;-7.58;80.61
35489;BME280;21602;55.670;37.578;2022-12-08T05:53:26;99526.59;;;-7.62;80.30
35489;BME280;21602;55.670;37.578;2022-12-08T05:55:52;99529.19;;;-7.62;80.48
35489;BME280;21602;55.670;37.578;2022-12-08T05:58:19;99531.78;;;-7.62;80.59
35489;BME280;21602;55.670;37.578;2022-12-08T06:00:45;99531.97;;;-7.65;80.19
35489;BME280;21602;55.670;37.578;2022-12-08T06:03:11;99533.63;;;-7.64;80.50
35489;BME280;21602;55.670;37.578;2022-12-08T06:05:37;99536.22;;;-7.64;80.93
35489;BME280;21602;55.670;37.578;2022-12-08T06:08:03;99539.34;;;-7.59;80.61
35489;BME280;21602;55.670;37.578;2022-12-08T06:10:28;99541.47;;;-7.53;80.46
35489;BME280;21602;55.670;37.578;2022-12-08T06:12:54;99528.97;;;-7.48;80.70
35489;BME280;21602;55.670;37.578;2022-12-08T06:15:20;99524.50;;;-7.46;80.73
35489;BME280;21602;55.670;37.578;2022-12-08T06:17:45;99523.94;;;-7.38;80.79
35489;BME280;21602;55.670;37.578;2022-12-08T06:20:11;99531.25;;;-7.32;80.36
35489;BME280;21602;55.670;37.578;2022-12-08T06:22:37;99526.88;;;-7.32;80.75
35489;BME280;21602;55.670;37.578;2022-12-08T06:25:03;99526.78;;;-7.30;80.78
35489;BME280;21602;55.670;37.578;2022-12-08T06:27:31;99533.41;;;-7.26;80.59
35489;BME280;21602;55.670;37.578;2022-12-08T06:29:57;99533.16;;;-7.23;80.57
35489;BME280;21602;55.670;37.578;2022-12-08T06:32:23;99536.94;;;-7.16;80.54
35489;BME280;21602;55.670;37.578;2022-12-08T06:34:49;99524.78;;;-7.15;80.44
35489;BME280;21602;55.670;37.578;2022-12-08T06:37:14;99522.06;;;-7.14;80.09
35489;BME280;21602;55.670;37.578;2022-12-08T06:39:40;99522.53;;;-7.20;79.87
35489;BME280;21602;55.670;37.578;2022-12-08T06:42:06;99518.88;;;-7.17;80.96
35489;BME280;21602;55.670;37.578;2022-12-08T06:44:50;99534.44;;;-7.17;79.91
35489;BME280;21602;55.670;37.578;2022-12-08T06:47:15;99527.13;;;-7.24;79.68
35489;BME280;21602;55.670;37.578;2022-12-08T06:49:41;99525.47;;;-7.25;79.74
35489;BME280;21602;55.670;37.578;2022-12-08T06:52:07;99533.00;;;-7.22;79.87
35489;BME280;21602;55.670;37.578;2022-12-08T06:54:33;99527.25;;;-7.14;79.97
35489;BME280;21602;55.670;37.578;2022-12-08T06:56:58;99526.78;;;-7.08;79.79
35489;BME280;21602;55.670;37.578;2022-12-08T06:59:26;99532.22;;;-7.00;79.67
35489;BME280;21602;55.670;37.578;2022-12-08T07:01:52;99529.28;;;-7.06;79.20
35489;BME280;21602;55.670;37.578;2022-12-08T07:04:18;99530.31;;;-7.09;78.77
35489;BME280;21602;55.670;37.578;2022-12-08T07:06:43;99527.25;;;-7.14;78.71
35489;BME280;21602;55.670;37.578;2022-12-08T07:09:09;99527.72;;;-7.20;78.80
35489;BME280;21602;55.670;37.578;2022-12-08T07:11:36;99517.84;;;-7.26;79.15
35489;BME280;21602;55.670;37.578;2022-12-08T07:14:02;99518.31;;;-7.21;79.23
35489;BME280;21602;55.670;37.578;2022-12-08T07:16:28;99521.59;;;-7.19;78.79
35489;BME280;21602;55.670;37.578;2022-12-08T07:18:54;99513.94;;;-7.09;79.02
35489;BME280;21602;55.670;37.578;2022-12-08T07:21:19;99520.56;;;-7.05;78.39
35489;BME280;21602;55.670;37.578;2022-12-08T07:23:45;99513.47;;;-7.03;78.42
35489;BME280;21602;55.670;37.578;2022-12-08T07:26:12;99527.97;;;-7.01;78.15
35489;BME280;21602;55.670;37.578;2022-12-08T07:28:38;99518.66;;;-7.03;77.63
35489;BME280;21602;55.670;37.578;2022-12-08T07:31:05;99525.13;;;-7.09;77.58
35489;BME280;21602;55.670;37.578;2022-12-08T07:33:31;99529.50;;;-7.09;77.95
35489;BME280;21602;55.670;37.578;2022-12-08T07:35:58;99526.91;;;-7.09;77.58
35489;BME280;21602;55.670;37.578;2022-12-08T07:38:24;99531.16;;;-7.08;77.62
35489;BME280;21602;55.670;37.578;2022-12-08T07:40:50;99530.94;;;-7.05;77.38
35489;BME280;21602;55.670;37.578;2022-12-08T07:43:16;99524.78;;;-7.04;77.32
35489;BME280;21602;55.670;37.578;2022-12-08T07:45:42;99530.94;;;-7.05;77.38
35489;BME280;21602;55.670;37.578;2022-12-08T07:48:08;99516.06;;;-7.03;77.23
35489;BME280;21602;55.670;37.578;2022-12-08T07:50:34;99499.91;;;-6.96;77.14
35489;BME280;21602;55.670;37.578;2022-12-08T07:52:59;99508.28;;;-6.81;77.02
35489;BME280;21602;55.670;37.578;2022-12-08T07:55:25;99502.25;;;-6.81;76.72
35489;BME280;21602;55.670;37.578;2022-12-08T07:57:51;99501.91;;;-6.99;76.82
35489;BME280;21602;55.670;37.578;2022-12-08T08:00:17;99512.31;;;-6.88;77.00
35489;BME280;21602;55.670;37.578;2022-12-08T08:02:43;99492.22;;;-6.86;76.63
35489;BME280;21602;55.670;37.578;2022-12-08T08:05:09;99495.78;;;-6.87;76.61
35489;BME280;21602;55.670;37.578;2022-12-08T08:07:36;99487.72;;;-6.84;76.61
35489;BME280;21602;55.670;37.578;2022-12-08T08:10:03;99482.66;;;-6.85;76.37
35489;BME280;21602;55.670;37.578;2022-12-08T08:12:28;99493.06;;;-6.85;76.91
35489;BME280;21602;55.670;37.578;2022-12-08T08:14:54;99491.06;;;-6.82;76.91
35489;BME280;21602;55.670;37.578;2022-12-08T08:17:20;99490.34;;;-6.73;76.47
35489;BME280;21602;55.670;37.578;2022-12-08T08:19:46;99474.41;;;-6.68;76.07
35489;BME280;21602;55.670;37.578;2022-12-08T08:22:11;99491.50;;;-6.65;76.32
35489;BME280;21602;55.670;37.578;2022-12-08T08:24:37;99486.06;;;-6.62;76.44
35489;BME280;21602;55.670;37.578;2022-12-08T08:27:03;99488.44;;;-6.59;76.11
35489;BME280;21602;55.670;37.578;2022-12-08T08:29:28;99478.75;;;-6.57;76.11
35489;BME280;21602;55.670;37.578;2022-12-08T08:31:54;99475.44;;;-6.59;76.40
35489;BME280;21602;55.670;37.578;2022-12-08T08:34:19;99479.34;;;-6.54;76.32
35489;BME280;21602;55.670;37.578;2022-12-08T08:36:45;99474.72;;;-6.50;76.04
35489;BME280;21602;55.670;37.578;2022-12-08T08:39:11;99483.34;;;-6.50;76.07
35489;BME280;21602;55.670;37.578;2022-12-08T08:41:36;99475.63;;;-6.40;76.09
35489;BME280;21602;55.670;37.578;2022-12-08T08:44:02;99479.50;;;-6.34;75.79
35489;BME280;21602;55.670;37.578;2022-12-08T08:46:31;99478.34;;;-6.41;75.89
35489;BME280;21602;55.670;37.578;2022-12-08T08:48:56;99473.50;;;-6.46;75.91
35489;BME280;21602;55.670;37.578;2022-12-08T08:51:22;99477.66;;;-6.43;76.62
35489;BME280;21602;55.670;37.578;2022-12-08T08:53:48;99460.63;;;-6.36;76.54
35489;BME280;21602;55.670;37.578;2022-12-08T08:56:14;99473.72;;;-6.38;76.28
35489;BME280;21602;55.670;37.578;2022-12-08T08:58:42;99472.91;;;-6.38;76.28
35489;BME280;21602;55.670;37.578;2022-12-08T09:01:12;99484.13;;;-6.38;76.61
35489;BME280;21602;55.670;37.578;2022-12-08T09:03:38;99474.56;;;-6.37;76.47
35489;BME280;21602;55.670;37.578;2022-12-08T09:06:04;99482.03;;;-6.44;76.72
35489;BME280;21602;55.670;37.578;2022-12-08T09:08:30;99479.44;;;-6.55;76.97
35489;BME280;21602;55.670;37.578;2022-12-08T09:10:58;99478.06;;;-6.59;77.23
35489;BME280;21602;55.670;37.578;2022-12-08T09:13:23;99478.63;;;-6.67;77.70
35489;BME280;21602;55.670;37.578;2022-12-08T09:15:49;99484.44;;;-6.63;77.89
35489;BME280;21602;55.670;37.578;2022-12-08T09:18:15;99483.34;;;-6.61;78.06
35489;BME280;21602;55.670;37.578;2022-12-08T09:20:40;99492.09;;;-6.62;78.13
35489;BME280;21602;55.670;37.578;2022-12-08T09:23:06;99479.91;;;-6.50;78.04
35489;BME280;21602;55.670;37.578;2022-12-08T09:25:32;99475.56;;;-6.50;77.92
35489;BME280;21602;55.670;37.578;2022-12-08T09:27:57;99465.75;;;-6.57;78.04
35489;BME280;21602;55.670;37.578;2022-12-08T09:30:23;99466.34;;;-6.54;77.88
35489;BME280;21602;55.670;37.578;2022-12-08T09:32:49;99460.69;;;-6.59;78.20
35489;BME280;21602;55.670;37.578;2022-12-08T09:35:14;99466.94;;;-6.50;78.09
35489;BME280;21602;55.670;37.578;2022-12-08T09:37:40;99464.06;;;-6.36;78.34
35489;BME280;21602;55.670;37.578;2022-12-08T09:40:14;99471.22;;;-6.28;78.01
35489;BME280;21602;55.670;37.578;2022-12-08T09:43:09;99467.75;;;-6.18;77.69
35489;BME280;21602;55.670;37.578;2022-12-08T09:45:38;99464.50;;;-6.31;77.37
35489;BME280;21602;55.670;37.578;2022-12-08T09:48:05;99464.88;;;-6.35;77.38
35489;BME280;21602;55.670;37.578;2022-12-08T09:50:38;99458.16;;;-6.38;77.42
35489;BME280;21602;55.670;37.578;2022-12-08T09:53:11;99454.59;;;-6.37;77.37
35489;BME280;21602;55.670;37.578;2022-12-08T09:58:09;99459.97;;;-6.18;77.50
35489;BME280;21602;55.670;37.578;2022-12-08T10:00:37;99459.97;;;-6.18;77.54
35489;BME280;21602;55.670;37.578;2022-12-08T10:03:05;99453.38;;;-6.22;77.94
35489;BME280;21602;55.670;37.578;2022-12-08T10:05:31;99461.88;;;-6.20;78.59
35489;BME280;21602;55.670;37.578;2022-12-08T10:08:07;99460.22;;;-6.21;78.83
35489;BME280;21602;55.670;37.578;2022-12-08T10:10:46;99454.22;;;-6.21;78.72
35489;BME280;21602;55.670;37.578;2022-12-08T10:18:09;99451.72;;;-6.23;79.56
35489;BME280;21602;55.670;37.578;2022-12-08T10:20:37;99448.28;;;-6.23;79.73
35489;BME280;21602;55.670;37.578;2022-12-08T10:23:24;99456.34;;;-6.26;79.95
35489;BME280;21602;55.670;37.578;2022-12-08T10:26:02;99460.69;;;-6.27;80.59
35489;BME280;21602;55.670;37.578;2022-12-08T10:28:28;99460.81;;;-6.17;80.61
35489;BME280;21602;55.670;37.578;2022-12-08T10:30:54;99460.03;;;-6.08;80.78
35489;BME280;21602;55.670;37.578;2022-12-08T10:33:20;99459.66;;;-6.03;80.36
35489;BME280;21602;55.670;37.578;2022-12-08T10:38:19;99460.03;;;-5.87;79.80
35489;BME280;21602;55.670;37.578;2022-12-08T10:40:46;99459.28;;;-5.78;79.53
35489;BME280;21602;55.670;37.578;2022-12-08T10:43:21;99457.25;;;-5.74;79.05
35489;BME280;21602;55.670;37.578;2022-12-08T10:45:48;99454.53;;;-5.73;79.01
35489;BME280;21602;55.670;37.578;2022-12-08T10:50:46;99461.16;;;-5.80;78.83
35489;BME280;21602;55.670;37.578;2022-12-08T10:53:32;99460.00;;;-5.97;79.05
35489;BME280;21602;55.670;37.578;2022-12-08T10:56:15;99465.31;;;-5.98;79.28
35489;BME280;21602;55.670;37.578;2022-12-08T10:58:43;99466.25;;;-5.99;79.19
35489;BME280;21602;55.670;37.578;2022-12-08T11:01:24;99455.88;;;-5.99;79.51
35489;BME280;21602;55.670;37.578;2022-12-08T11:03:52;99453.03;;;-5.96;79.37
35489;BME280;21602;55.670;37.578;2022-12-08T11:08:58;99448.94;;;-5.89;79.25
35489;BME280;21602;55.670;37.578;2022-12-08T11:14:15;99444.38;;;-5.76;79.12
35489;BME280;21602;55.670;37.578;2022-12-08T11:16:42;99449.91;;;-5.69;79.26
35489;BME280;21602;55.670;37.578;2022-12-08T11:19:12;99447.75;;;-5.64;78.68
35489;BME280;21602;55.670;37.578;2022-12-08T11:21:38;99447.09;;;-5.56;78.68
35489;BME280;21602;55.670;37.578;2022-12-08T11:26:39;99441.19;;;-5.58;78.42
35489;BME280;21602;55.670;37.578;2022-12-08T11:29:09;99441.13;;;-5.47;78.43
35489;BME280;21602;55.670;37.578;2022-12-08T11:31:40;99442.50;;;-5.43;77.95
35489;BME280;21602;55.670;37.578;2022-12-08T11:34:08;99438.06;;;-5.52;77.83
35489;BME280;21602;55.670;37.578;2022-12-08T11:36:43;99435.28;;;-5.60;77.80
35489;BME280;21602;55.670;37.578;2022-12-08T11:39:09;99441.06;;;-5.57;78.42
35489;BME280;21602;55.670;37.578;2022-12-08T11:41:37;99438.34;;;-5.55;78.20
35489;BME280;21602;55.670;37.578;2022-12-08T11:46:42;99443.59;;;-5.67;78.92
35489;BME280;21602;55.670;37.578;2022-12-08T11:49:14;99437.00;;;-5.71;78.94
35489;BME280;21602;55.670;37.578;2022-12-08T11:51:45;99435.59;;;-5.75;79.01
35489;BME280;21602;55.670;37.578;2022-12-08T11:56:58;99434.25;;;-5.79;79.69
35489;BME280;21602;55.670;37.578;2022-12-08T11:59:28;99442.03;;;-5.79;79.75
35489;BME280;21602;55.670;37.578;2022-12-08T12:01:58;99455.88;;;-5.78;79.81
35489;BME280;21602;55.670;37.578;2022-12-08T12:22:39;99458.56;;;-5.80;80.30
35489;BME280;21602;55.670;37.578;2022-12-08T12:25:14;99457.38;;;-5.76;80.27
35489;BME280;21602;55.670;37.578;2022-12-08T12:27:40;99463.28;;;-5.74;80.27
35489;BME280;21602;55.670;37.578;2022-12-08T12:30:16;99461.66;;;-5.65;80.47
35489;BME280;21602;55.670;37.578;2022-12-08T12:32:44;99470.78;;;-5.59;80.19
35489;BME280;21602;55.670;37.578;2022-12-08T12:35:15;99462.69;;;-5.56;80.06
35489;BME280;21602;55.670;37.578;2022-12-08T12:37:41;99469.16;;;-5.72;80.31
35489;BME280;21602;55.670;37.578;2022-12-08T12:40:15;99465.00;;;-5.63;80.47
35489;BME280;21602;55.670;37.578;2022-12-08T12:42:43;99471.31;;;-5.56;80.19
35489;BME280;21602;55.670;37.578;2022-12-08T12:47:45;99464.81;;;-5.50;80.09
35489;BME280;21602;55.670;37.578;2022-12-08T12:50:12;99474.34;;;-5.51;80.03
35489;BME280;21602;55.670;37.578;2022-12-08T12:52:38;99484.69;;;-5.60;79.96
35489;BME280;21602;55.670;37.578;2022-12-08T12:57:37;99484.41;;;-5.67;80.37
35489;BME280;21602;55.670;37.578;2022-12-08T13:02:36;99493.22;;;-5.58;80.54
35489;BME280;21602;55.670;37.578;2022-12-08T13:10:23;99479.78;;;-5.63;80.82
35489;BME280;21602;55.670;37.578;2022-12-08T13:15:35;99486.81;;;-5.54;80.42
35489;BME280;21602;55.670;37.578;2022-12-08T13:18:02;99485.34;;;-5.47;80.44
35489;BME280;21602;55.670;37.578;2022-12-08T13:20:28;99491.94;;;-5.43;80.00
35489;BME280;21602;55.670;37.578;2022-12-08T13:25:48;99483.69;;;-5.48;80.05
35489;BME280;21602;55.670;37.578;2022-12-08T13:28:16;99484.38;;;-5.46;80.03
35489;BME280;21602;55.670;37.578;2022-12-08T13:30:44;99478.25;;;-5.45;80.03
35489;BME280;21602;55.670;37.578;2022-12-08T13:33:13;99485.09;;;-5.44;79.94
35489;BME280;21602;55.670;37.578;2022-12-08T13:35:41;99478.94;;;-5.43;79.93
35489;BME280;21602;55.670;37.578;2022-12-08T13:38:14;99480.19;;;-5.37;80.16
35489;BME280;21602;55.670;37.578;2022-12-08T13:40:41;99483.50;;;-5.35;79.97
35489;BME280;21602;55.670;37.578;2022-12-08T13:43:09;99486.53;;;-5.30;79.70
35489;BME280;21602;55.670;37.578;2022-12-08T13:45:40;99484.03;;;-5.32;79.61
35489;BME280;21602;55.670;37.578;2022-12-08T13:48:15;99478.53;;;-5.38;79.81
35489;BME280;21602;55.670;37.578;2022-12-08T13:50:43;99484.13;;;-5.43;79.86
35489;BME280;21602;55.670;37.578;2022-12-08T13:53:12;99466.34;;;-5.38;79.89
35489;BME280;21602;55.670;37.578;2022-12-08T13:55:40;99475.16;;;-5.29;79.95
35489;BME280;21602;55.670;37.578;2022-12-08T13:58:14;99469.88;;;-5.18;79.87
35489;BME280;21602;55.670;37.578;2022-12-08T14:00:40;99476.66;;;-5.06;79.70
35489;BME280;21602;55.670;37.578;2022-12-08T14:03:07;99474.06;;;-5.06;79.28
35489;BME280;21602;55.670;37.578;2022-12-08T14:05:39;99472.09;;;-5.13;79.17
35489;BME280;21602;55.670;37.578;2022-12-08T14:08:07;99471.41;;;-5.16;79.42
35489;BME280;21602;55.670;37.578;2022-12-08T14:10:40;99478.25;;;-5.15;79.47
35489;BME280;21602;55.670;37.578;2022-12-08T14:13:08;99489.88;;;-5.19;79.24
35489;BME280;21602;55.670;37.578;2022-12-08T14:15:35;99480.00;;;-5.25;79.68